createdAt,value
2019-03-30T00:00:39.739Z,22.20
2019-03-30T00:05:47.206Z,22.03
2019-03-30T00:10:54.298Z,22.97
2019-03-30T00:16:00.372Z,21.27
2019-03-30T00:21:07.223Z,21.53
2019-03-30T00:26:16.446Z,21.77
2019-03-30T00:31:23.300Z,21.97
2019-03-30T00:36:29.790Z,20.40
2019-03-30T00:41:36.771Z,20.83
2019-03-30T00:46:44.384Z,20.43
2019-03-30T00:51:52.322Z,20.60
2019-03-30T00:56:59.500Z,20.87
2019-03-30T01:02:05.486Z,21.30
2019-03-30T01:07:12.360Z,21.23
2019-03-30T01:12:19.251Z,22.20
2019-03-30T01:17:26.532Z,21.40
2019-03-30T01:22:32.939Z,19.83
2019-03-30T01:27:52.694Z,19.23
2019-03-30T01:32:59.472Z,22.00
2019-03-30T01:38:07.450Z,21.27
2019-03-30T01:43:14.432Z,21.23
2019-03-30T01:48:20.921Z,20.40
2019-03-30T01:53:28.039Z,20.87
2019-03-30T01:58:35.841Z,20.03
2019-03-30T02:03:42.523Z,22.17
2019-03-30T02:08:49.621Z,21.70
2019-03-30T02:13:56.106Z,21.27
2019-03-30T02:19:04.442Z,21.43
2019-03-30T02:24:11.374Z,21.03
2019-03-30T02:29:17.411Z,21.40
2019-03-30T02:34:25.709Z,19.93
2019-03-30T02:39:31.809Z,19.93
2019-03-30T02:44:38.698Z,19.80
2019-03-30T02:49:45.804Z,19.90
2019-03-30T02:54:53.754Z,18.13
2019-03-30T03:00:00.860Z,18.67
2019-03-30T03:05:09.943Z,19.50
2019-03-30T03:10:16.844Z,20.27
2019-03-30T03:15:23.968Z,18.47
2019-03-30T03:20:29.914Z,17.63
2019-03-30T03:25:35.882Z,18.57
2019-03-30T03:30:42.988Z,17.37
2019-03-30T03:35:49.487Z,17.40
2019-03-30T03:40:57.700Z,17.73
2019-03-30T03:46:05.746Z,17.17
2019-03-30T03:51:25.839Z,17.93
2019-03-30T03:56:45.847Z,17.63
2019-03-30T04:02:14.960Z,17.57
2019-03-30T04:07:26.331Z,16.73
2019-03-30T04:12:36.723Z,16.80
2019-03-30T04:17:43.376Z,16.10
2019-03-30T04:22:50.409Z,16.33
2019-03-30T04:27:58.395Z,16.30
2019-03-30T04:33:04.397Z,14.90
2019-03-30T04:38:14.295Z,16.93
2019-03-30T04:43:20.685Z,14.40
2019-03-30T04:48:29.535Z,15.80
2019-03-30T04:53:36.239Z,15.30
2019-03-30T04:58:42.118Z,16.13
2019-03-30T05:03:49.013Z,14.70
2019-03-30T05:08:56.875Z,15.87
2019-03-30T05:14:05.155Z,15.77
2019-03-30T05:24:38.045Z,15.37
2019-03-30T05:29:45.268Z,14.77
2019-03-30T05:34:53.983Z,14.33
2019-03-30T05:40:00.778Z,14.87
2019-03-30T05:45:28.573Z,14.27
2019-03-30T05:50:36.005Z,13.90
2019-03-30T05:55:42.800Z,14.83
2019-03-30T06:00:49.588Z,15.00
2019-03-30T06:05:57.633Z,15.00
2019-03-30T06:11:04.093Z,13.87
2019-03-30T06:16:09.957Z,13.90
2019-03-30T06:21:16.768Z,13.10
2019-03-30T06:26:23.946Z,13.20
2019-03-30T06:31:29.915Z,14.00
2019-03-30T06:36:36.726Z,12.97
2019-03-30T06:41:55.392Z,12.63
2019-03-30T06:47:01.765Z,13.73
2019-03-30T06:52:07.782Z,12.40
2019-03-30T06:57:15.666Z,12.47
2019-03-30T07:02:21.690Z,12.10
2019-03-30T07:07:29.140Z,11.70
2019-03-30T07:12:58.861Z,11.47
2019-03-30T07:18:05.904Z,12.50
2019-03-30T07:23:13.108Z,11.87
2019-03-30T07:28:19.584Z,13.17
2019-03-30T07:33:26.565Z,12.37
2019-03-30T07:38:32.475Z,11.80
2019-03-30T07:43:39.267Z,12.77
2019-03-30T07:48:45.105Z,12.40
2019-03-30T07:53:51.875Z,11.63
2019-03-30T07:58:58.514Z,12.37
2019-03-30T08:04:28.636Z,12.67
2019-03-30T08:09:37.230Z,13.00
2019-03-30T08:14:45.333Z,12.83
2019-03-30T08:19:52.283Z,12.93
2019-03-30T08:24:58.221Z,12.80
2019-03-30T08:30:06.169Z,13.67
2019-03-30T08:35:12.374Z,13.47
2019-03-30T08:40:18.836Z,12.17
2019-03-30T08:45:26.936Z,12.30
2019-03-30T08:50:32.924Z,11.90
2019-03-30T08:56:27.765Z,12.40
2019-03-30T09:01:31.960Z,12.97
2019-03-30T09:06:37.932Z,11.07
2019-03-30T09:11:43.926Z,12.23
2019-03-30T09:16:50.855Z,11.77
2019-03-30T09:21:57.773Z,11.17
2019-03-30T09:27:03.711Z,11.57
2019-03-30T09:32:14.564Z,11.80
2019-03-30T09:37:17.708Z,11.30
2019-03-30T09:42:24.463Z,11.17
2019-03-30T09:47:30.390Z,11.60
2019-03-30T09:52:36.367Z,10.50
2019-03-30T09:57:42.758Z,11.20
2019-03-30T10:02:48.619Z,11.53
2019-03-30T10:07:55.535Z,12.17
2019-03-30T10:13:01.423Z,11.80
2019-03-30T10:18:08.327Z,10.67
2019-03-30T10:23:14.774Z,10.87
2019-03-30T10:28:21.316Z,11.37
2019-03-30T10:33:29.201Z,10.60
2019-03-30T10:38:35.159Z,12.00
2019-03-30T10:43:41.941Z,10.83
2019-03-30T10:48:48.846Z,9.27
2019-03-30T10:53:55.641Z,9.33
2019-03-30T10:59:02.049Z,8.30
2019-03-30T11:04:07.949Z,9.70
2019-03-30T11:09:13.850Z,10.20
2019-03-30T11:14:20.460Z,10.17
2019-03-30T11:19:26.379Z,12.33
2019-03-30T11:24:32.311Z,10.57
2019-03-30T11:29:40.333Z,10.37
2019-03-30T11:34:47.420Z,10.77
2019-03-30T11:39:54.441Z,10.20
2019-03-30T11:45:01.366Z,9.87
2019-03-30T11:50:08.662Z,11.10
2019-03-30T11:55:22.088Z,9.83
2019-03-30T12:00:23.485Z,9.73
2019-03-30T12:05:30.028Z,10.60
2019-03-30T12:10:36.026Z,10.50
2019-03-30T12:15:42.934Z,11.57
2019-03-30T12:20:50.035Z,10.33
2019-03-30T12:25:56.066Z,10.53
2019-03-30T12:31:02.850Z,10.50
2019-03-30T12:36:08.815Z,10.33
2019-03-30T12:41:15.224Z,9.90
2019-03-30T12:46:21.371Z,10.43
2019-03-30T12:51:27.336Z,10.93
2019-03-30T12:56:33.363Z,11.30
2019-03-30T13:01:39.440Z,10.37
2019-03-30T13:06:45.997Z,11.00
2019-03-30T13:11:52.901Z,10.70
2019-03-30T13:16:58.949Z,9.97
2019-03-30T13:22:05.016Z,10.23
2019-03-30T13:27:13.127Z,10.37
2019-03-30T13:32:20.055Z,10.97
2019-03-30T13:37:26.692Z,11.10
2019-03-30T13:42:32.709Z,11.23
2019-03-30T13:47:38.704Z,11.13
2019-03-30T13:52:45.699Z,10.67
2019-03-30T13:57:52.452Z,10.33
2019-03-30T14:02:58.417Z,9.77
2019-03-30T14:08:05.234Z,10.30
2019-03-30T14:13:13.745Z,10.97
2019-03-30T14:18:20.509Z,10.20
2019-03-30T14:23:28.361Z,9.93
2019-03-30T14:28:34.339Z,11.07
2019-03-30T14:33:40.773Z,11.27
2019-03-30T14:38:47.310Z,11.80
2019-03-30T14:43:54.103Z,12.00
2019-03-30T14:49:00.895Z,12.40
2019-03-30T14:54:07.888Z,13.07
2019-03-30T14:59:14.743Z,12.80
2019-03-30T15:04:22.415Z,13.07
2019-03-30T15:09:31.955Z,13.33
2019-03-30T15:14:38.043Z,12.47
2019-03-30T15:19:45.030Z,11.57
2019-03-30T15:24:52.128Z,13.00
2019-03-30T15:30:00.351Z,14.57
2019-03-30T15:35:08.197Z,14.07
2019-03-30T15:40:15.155Z,13.83
2019-03-30T15:45:21.134Z,12.50
2019-03-30T15:50:27.139Z,13.17
2019-03-30T15:55:33.128Z,12.67
2019-03-30T16:00:39.939Z,14.00
2019-03-30T16:05:46.748Z,14.23
2019-03-30T16:10:54.605Z,13.87
2019-03-30T16:16:03.328Z,13.20
2019-03-30T16:21:10.522Z,12.03
2019-03-30T16:26:16.883Z,11.43
2019-03-30T16:31:24.187Z,11.37
2019-03-30T16:36:32.584Z,11.93
2019-03-30T16:41:42.695Z,11.40
2019-03-30T16:46:50.312Z,11.63
2019-03-30T16:51:58.208Z,11.17
2019-03-30T16:57:05.112Z,12.83
2019-03-30T17:02:11.901Z,12.03
2019-03-30T17:07:18.994Z,12.63
2019-03-30T17:12:26.091Z,12.57
2019-03-30T17:17:33.321Z,13.77
2019-03-30T17:22:39.877Z,13.13
2019-03-30T17:27:57.349Z,13.27
2019-03-30T17:32:56.240Z,21.20
2019-03-30T17:38:02.309Z,22.37
2019-03-30T17:43:09.001Z,31.40
2019-03-30T17:48:18.148Z,52.67
2019-03-30T17:53:27.286Z,29.60
2019-03-30T17:58:35.085Z,17.90
2019-03-30T18:03:42.617Z,16.07
2019-03-30T18:08:49.369Z,18.07
2019-03-30T18:13:56.939Z,16.67
2019-03-30T18:19:04.915Z,13.73
2019-03-30T18:24:11.095Z,13.00
2019-03-30T18:29:20.075Z,13.47
2019-03-30T18:34:29.206Z,13.57
2019-03-30T18:39:36.578Z,13.80
2019-03-30T18:44:44.294Z,14.27
2019-03-30T18:49:55.697Z,14.37
2019-03-30T18:55:02.726Z,16.50
2019-03-30T19:00:16.738Z,16.73
2019-03-30T19:05:25.686Z,16.90
2019-03-30T19:10:34.640Z,19.43
2019-03-30T19:15:43.902Z,21.17
2019-03-30T19:20:50.847Z,21.57
2019-03-30T19:25:59.574Z,21.57
2019-03-30T19:31:08.087Z,22.63
2019-03-30T19:36:15.743Z,25.20
2019-03-30T19:41:23.151Z,26.30
2019-03-30T19:46:30.773Z,31.07
2019-03-30T19:51:41.040Z,30.50
2019-03-30T19:56:47.017Z,29.80
2019-03-30T20:01:56.703Z,29.17
2019-03-30T20:07:05.831Z,27.83
2019-03-30T20:12:14.527Z,28.77
2019-03-30T20:17:23.305Z,28.97
2019-03-30T20:22:29.375Z,29.80
2019-03-30T20:27:40.871Z,39.33
2019-03-30T20:32:47.667Z,73.40
2019-03-30T20:37:57.271Z,44.63
2019-03-30T20:43:23.564Z,33.50
2019-03-30T20:48:32.883Z,31.93
2019-03-30T20:53:39.505Z,30.53
2019-03-30T20:58:48.045Z,30.03
2019-03-30T21:03:56.261Z,29.20
2019-03-30T21:09:07.052Z,28.83
2019-03-30T21:14:14.474Z,28.80
2019-03-30T21:19:20.634Z,30.40
2019-03-30T21:24:27.612Z,26.87
2019-03-30T21:29:35.962Z,26.47
2019-03-30T21:34:44.079Z,32.57
2019-03-30T21:39:53.519Z,31.53
2019-03-30T21:45:00.148Z,28.57
2019-03-30T21:50:09.566Z,27.23
2019-03-30T21:55:16.217Z,26.33
2019-03-30T22:00:40.625Z,26.83
2019-03-30T22:05:49.596Z,26.70
2019-03-30T22:10:56.478Z,27.63
2019-03-30T22:16:03.285Z,25.93
2019-03-30T22:21:10.170Z,25.43
2019-03-30T22:26:16.145Z,26.77
2019-03-30T22:31:22.219Z,26.13
2019-03-30T22:36:29.212Z,26.17
2019-03-30T22:41:36.314Z,23.20
2019-03-30T23:09:21.240Z,28.37
2019-03-30T23:14:27.213Z,29.97
2019-03-30T23:19:33.282Z,27.10
2019-03-30T23:24:42.181Z,25.23
2019-03-30T23:29:51.686Z,25.27
2019-03-30T23:34:59.773Z,25.43
2019-03-30T23:40:08.631Z,25.43
2019-03-30T23:45:15.634Z,23.67
2019-03-30T23:50:21.711Z,21.40
2019-03-30T23:55:29.312Z,20.53
